TimeEDT,TemperatureF,Dew PointF,Humidity,Sea Level PressureIn,VisibilityMPH,Wind Direction,Wind SpeedMPH,Gust SpeedMPH,PrecipitationIn,Events,Conditions,WindDirDegrees,DateUTC
12:51 AM,37.9,35.1,89,30.10,10.0,Calm,Calm,-,N/A,,Clear,0,2011-10-26 04:51:00
1:51 AM,37.0,35.1,93,30.09,10.0,Calm,Calm,-,N/A,,Clear,0,2011-10-26 05:51:00
2:51 AM,36.0,35.1,97,30.08,10.0,Calm,Calm,-,N/A,,Clear,0,2011-10-26 06:51:00
3:51 AM,37.0,35.1,93,30.05,10.0,Calm,Calm,-,N/A,,Clear,0,2011-10-26 07:51:00
4:51 AM,36.0,34.0,93,30.04,10.0,Calm,Calm,-,N/A,,Clear,0,2011-10-26 08:51:00
5:51 AM,36.0,35.1,97,30.04,10.0,Calm,Calm,-,N/A,,Clear,0,2011-10-26 09:51:00
6:51 AM,39.0,36.0,89,30.05,10.0,East,3.5,-,N/A,,Clear,80,2011-10-26 10:51:00
7:51 AM,52.0,39.9,63,30.03,10.0,SSW,6.9,-,N/A,,Clear,200,2011-10-26 11:51:00
8:51 AM,59.0,42.1,53,30.03,10.0,SW,9.2,18.4,N/A,,Partly Cloudy,230,2011-10-26 12:51:00
9:51 AM,62.6,42.8,48,30.01,10.0,WSW,15.0,19.6,N/A,,Mostly Cloudy,240,2011-10-26 13:51:00
10:51 AM,60.1,45.0,57,30.02,10.0,WSW,3.5,-,0.00,Rain,Light Rain,250,2011-10-26 14:51:00
11:51 AM,55.9,48.0,75,30.03,7.0,Calm,Calm,-,0.02,Rain,Light Rain,0,2011-10-26 15:51:00
12:51 PM,54.0,51.1,90,30.01,10.0,Calm,Calm,-,0.04,,Overcast,0,2011-10-26 16:51:00
1:23 PM,55.4,51.8,88,29.96,10.0,South,4.6,-,0.00,Rain,Light Rain,170,2011-10-26 17:23:00
1:51 PM,55.9,51.1,84,29.98,10.0,Calm,Calm,-,0.00,Rain,Light Rain,0,2011-10-26 17:51:00
2:51 PM,57.9,50.0,75,29.94,10.0,SSE,6.9,-,0.00,,Overcast,150,2011-10-26 18:51:00
3:51 PM,63.0,48.9,60,29.91,10.0,SSW,5.8,16.1,N/A,,Mostly Cloudy,210,2011-10-26 19:51:00
4:51 PM,63.0,48.9,60,29.89,10.0,SW,8.1,-,N/A,,Scattered Clouds,220,2011-10-26 20:51:00
5:51 PM,63.0,48.9,60,29.89,10.0,SSW,8.1,18.4,N/A,,Partly Cloudy,210,2011-10-26 21:51:00
6:51 PM,62.1,48.0,60,29.89,10.0,SSW,10.4,-,N/A,,Overcast,210,2011-10-26 22:51:00
7:51 PM,61.0,48.9,64,29.88,10.0,South,4.6,-,N/A,,Overcast,170,2011-10-26 23:51:00
8:51 PM,61.0,48.9,64,29.88,10.0,Variable,6.9,-,0.00,Rain,Light Rain,0,2011-10-27 00:51:00
9:51 PM,57.9,50.0,75,29.87,10.0,Calm,Calm,-,0.00,,Overcast,0,2011-10-27 01:51:00
10:51 PM,59.0,50.0,72,29.86,10.0,WSW,4.6,-,N/A,,Overcast,240,2011-10-27 02:51:00
11:51 PM,57.0,52.0,83,29.84,10.0,Calm,Calm,-,0.00,,Overcast,0,2011-10-27 03:51:00